sensor_id;sensor_type;location;lat;lon;timestamp;pressure;altitude;pressure_sealevel;temperature;humidity
36932;BME280;22847;42.654;23.370;2023-03-15T00:01:10;93666.59;;;8.25;36.53
36932;BME280;22847;42.654;23.370;2023-03-15T00:03:39;93518.25;;;7.36;36.60
36932;BME280;22847;42.654;23.370;2023-03-15T00:06:04;93667.75;;;8.23;36.74
36932;BME280;22847;42.654;23.370;2023-03-15T00:08:30;93681.91;;;8.62;36.15
36932;BME280;22847;42.654;23.370;2023-03-15T00:10:58;93673.19;;;8.79;35.73
36932;BME280;22847;42.654;23.370;2023-03-15T00:13:23;93663.56;;;8.64;35.89
36932;BME280;22847;42.654;23.370;2023-03-15T00:15:50;93515.44;;;7.97;35.63
36932;BME280;22847;42.654;23.370;2023-03-15T00:18:19;93614.81;;;8.58;35.23
36932;BME280;22847;42.654;23.370;2023-03-15T00:20:45;93640.81;;;8.58;35.78
36932;BME280;22847;42.654;23.370;2023-03-15T00:23:11;93507.72;;;7.72;35.90
36932;BME280;22847;42.654;23.370;2023-03-15T00:25:37;93688.38;;;9.00;35.21
36932;BME280;22847;42.654;23.370;2023-03-15T00:28:03;93682.03;;;9.11;34.96
36932;BME280;22847;42.654;23.370;2023-03-15T00:30:29;93618.72;;;8.54;35.23
36932;BME280;22847;42.654;23.370;2023-03-15T00:32:54;93672.09;;;9.06;34.80
36932;BME280;22847;42.654;23.370;2023-03-15T00:35:20;93333.06;;;6.97;35.02
36932;BME280;22847;42.654;23.370;2023-03-15T00:37:48;93634.38;;;8.86;35.93
36932;BME280;22847;42.654;23.370;2023-03-15T00:40:13;93540.75;;;8.37;36.21
36932;BME280;22847;42.654;23.370;2023-03-15T00:42:39;93665.81;;;9.41;37.84
36932;BME280;22847;42.654;23.370;2023-03-15T00:45:05;93659.63;;;9.42;37.79
36932;BME280;22847;42.654;23.370;2023-03-15T00:47:31;93660.09;;;9.13;39.95
36932;BME280;22847;42.654;23.370;2023-03-15T00:49:56;93216.78;;;6.18;41.34
36932;BME280;22847;42.654;23.370;2023-03-15T00:52:22;93477.41;;;7.72;41.95
36932;BME280;22847;42.654;23.370;2023-03-15T00:54:54;93686.72;;;8.99;41.84
36932;BME280;22847;42.654;23.370;2023-03-15T00:57:20;93599.91;;;8.68;41.84
36932;BME280;22847;42.654;23.370;2023-03-15T00:59:46;93655.38;;;9.09;41.60
36932;BME280;22847;42.654;23.370;2023-03-15T01:02:12;93659.09;;;9.14;41.81
36932;BME280;22847;42.654;23.370;2023-03-15T01:04:38;93642.88;;;9.04;41.90
36932;BME280;22847;42.654;23.370;2023-03-15T01:07:04;93464.19;;;8.07;41.87
36932;BME280;22847;42.654;23.370;2023-03-15T01:09:30;93656.84;;;9.03;41.95
36932;BME280;22847;42.654;23.370;2023-03-15T01:11:57;93629.53;;;8.99;41.97
36932;BME280;22847;42.654;23.370;2023-03-15T01:14:22;93537.84;;;8.48;42.06
36932;BME280;22847;42.654;23.370;2023-03-15T01:16:48;93599.81;;;9.18;41.75
36932;BME280;22847;42.654;23.370;2023-03-15T01:19:14;93615.22;;;9.19;41.81
36932;BME280;22847;42.654;23.370;2023-03-15T01:21:39;93641.56;;;9.16;41.69
36932;BME280;22847;42.654;23.370;2023-03-15T01:24:05;93571.03;;;9.03;41.69
36932;BME280;22847;42.654;23.370;2023-03-15T01:26:31;93616.22;;;9.34;41.61
36932;BME280;22847;42.654;23.370;2023-03-15T01:28:56;93293.25;;;7.06;41.82
36932;BME280;22847;42.654;23.370;2023-03-15T01:31:25;93489.78;;;8.52;41.74
36932;BME280;22847;42.654;23.370;2023-03-15T01:33:52;93601.91;;;9.06;41.68
36932;BME280;22847;42.654;23.370;2023-03-15T01:36:17;93441.50;;;8.18;41.46
36932;BME280;22847;42.654;23.370;2023-03-15T01:38:43;93444.97;;;8.34;41.59
36932;BME280;22847;42.654;23.370;2023-03-15T01:41:13;93601.91;;;9.47;41.41
36932;BME280;22847;42.654;23.370;2023-03-15T01:43:39;93580.78;;;9.33;41.46
36932;BME280;22847;42.654;23.370;2023-03-15T01:49:30;93602.84;;;9.70;41.17
36932;BME280;22847;42.654;23.370;2023-03-15T01:52:00;93600.25;;;9.70;41.58
36932;BME280;22847;42.654;23.370;2023-03-15T01:54:38;93561.25;;;9.46;41.22
36932;BME280;22847;42.654;23.370;2023-03-15T01:57:10;93556.03;;;9.46;41.30
36932;BME280;22847;42.654;23.370;2023-03-15T01:59:41;93393.03;;;8.42;41.18
36932;BME280;22847;42.654;23.370;2023-03-15T02:02:09;93559.16;;;9.33;41.36
36932;BME280;22847;42.654;23.370;2023-03-15T02:04:45;93599.28;;;9.71;41.71
36932;BME280;22847;42.654;23.370;2023-03-15T02:07:12;93532.97;;;9.34;41.47
36932;BME280;22847;42.654;23.370;2023-03-15T02:12:17;93409.41;;;8.67;42.09
36932;BME280;22847;42.654;23.370;2023-03-15T02:14:43;93565.31;;;9.56;41.93
36932;BME280;22847;42.654;23.370;2023-03-15T02:17:10;93524.38;;;9.34;42.16
36932;BME280;22847;42.654;23.370;2023-03-15T02:19:54;93557.84;;;9.53;42.44
36932;BME280;22847;42.654;23.370;2023-03-15T02:25:11;93487.00;;;9.19;41.99
36932;BME280;22847;42.654;23.370;2023-03-15T02:27:41;93537.66;;;9.47;42.06
36932;BME280;22847;42.654;23.370;2023-03-15T02:30:09;93586.63;;;9.44;42.96
36932;BME280;22847;42.654;23.370;2023-03-15T02:32:36;93532.66;;;9.05;42.94
36932;BME280;22847;42.654;23.370;2023-03-15T02:35:01;93576.22;;;9.35;42.83
36932;BME280;22847;42.654;23.370;2023-03-15T02:37:26;93368.97;;;8.08;42.74
36932;BME280;22847;42.654;23.370;2023-03-15T02:39:52;93371.53;;;7.84;43.00
36932;BME280;22847;42.654;23.370;2023-03-15T02:42:17;93505.88;;;8.96;42.89
36932;BME280;22847;42.654;23.370;2023-03-15T02:44:44;93554.13;;;9.31;42.90
36932;BME280;22847;42.654;23.370;2023-03-15T02:47:31;93562.59;;;9.25;43.07
36932;BME280;22847;42.654;23.370;2023-03-15T02:49:57;93554.13;;;9.31;42.99
36932;BME280;22847;42.654;23.370;2023-03-15T02:52:23;93339.41;;;7.60;44.51
36932;BME280;22847;42.654;23.370;2023-03-15T02:54:49;93544.88;;;8.80;44.34
36932;BME280;22847;42.654;23.370;2023-03-15T02:57:15;93503.44;;;8.79;44.23
36932;BME280;22847;42.654;23.370;2023-03-15T02:59:41;93544.22;;;8.94;43.98
36932;BME280;22847;42.654;23.370;2023-03-15T03:02:07;93528.44;;;8.88;44.27
36932;BME280;22847;42.654;23.370;2023-03-15T03:04:36;93338.47;;;7.78;43.68
36932;BME280;22847;42.654;23.370;2023-03-15T03:07:01;93514.66;;;8.71;41.90
36932;BME280;22847;42.654;23.370;2023-03-15T03:09:26;93329.03;;;7.60;40.70
36932;BME280;22847;42.654;23.370;2023-03-15T03:11:52;93499.47;;;8.26;41.20
36932;BME280;22847;42.654;23.370;2023-03-15T03:14:17;93363.88;;;7.58;40.56
36932;BME280;22847;42.654;23.370;2023-03-15T03:16:43;93363.44;;;7.79;40.27
36932;BME280;22847;42.654;23.370;2023-03-15T03:19:09;93496.47;;;8.71;40.44
36932;BME280;22847;42.654;23.370;2023-03-15T03:21:37;93524.25;;;8.95;41.40
36932;BME280;22847;42.654;23.370;2023-03-15T03:24:02;93518.06;;;8.96;41.22
36932;BME280;22847;42.654;23.370;2023-03-15T03:26:28;93308.91;;;7.54;40.64
36932;BME280;22847;42.654;23.370;2023-03-15T03:28:56;93482.81;;;8.69;41.90
36932;BME280;22847;42.654;23.370;2023-03-15T03:31:24;93501.50;;;8.81;41.06
36932;BME280;22847;42.654;23.370;2023-03-15T03:33:50;93362.00;;;8.00;40.23
36932;BME280;22847;42.654;23.370;2023-03-15T03:36:17;93505.69;;;8.41;41.29
36932;BME280;22847;42.654;23.370;2023-03-15T03:38:44;93501.47;;;8.65;41.02
36932;BME280;22847;42.654;23.370;2023-03-15T03:41:11;93497.91;;;8.66;42.30
36932;BME280;22847;42.654;23.370;2023-03-15T03:43:37;93437.28;;;8.25;42.99
36932;BME280;22847;42.654;23.370;2023-03-15T03:46:03;93497.75;;;8.67;41.39
36932;BME280;22847;42.654;23.370;2023-03-15T03:48:29;93523.06;;;8.57;41.54
36932;BME280;22847;42.654;23.370;2023-03-15T03:50:55;93415.88;;;8.23;43.61
36932;BME280;22847;42.654;23.370;2023-03-15T03:53:21;93502.63;;;8.46;41.55
36932;BME280;22847;42.654;23.370;2023-03-15T03:55:46;93491.09;;;8.73;42.05
36932;BME280;22847;42.654;23.370;2023-03-15T03:58:12;93514.16;;;8.76;43.64
36932;BME280;22847;42.654;23.370;2023-03-15T04:00:37;93447.75;;;8.57;45.25
36932;BME280;22847;42.654;23.370;2023-03-15T04:03:03;93470.31;;;8.73;45.41
36932;BME280;22847;42.654;23.370;2023-03-15T04:05:28;93453.41;;;8.61;45.59
36932;BME280;22847;42.654;23.370;2023-03-15T04:07:54;93499.53;;;8.75;45.35
36932;BME280;22847;42.654;23.370;2023-03-15T04:10:19;93463.50;;;8.72;45.65
36932;BME280;22847;42.654;23.370;2023-03-15T04:12:55;93459.25;;;8.71;45.68
36932;BME280;22847;42.654;23.370;2023-03-15T04:15:22;93430.38;;;8.49;45.03
36932;BME280;22847;42.654;23.370;2023-03-15T04:17:48;93274.19;;;7.39;43.40
36932;BME280;22847;42.654;23.370;2023-03-15T04:20:14;93490.44;;;8.71;42.61
36932;BME280;22847;42.654;23.370;2023-03-15T04:22:42;93450.00;;;8.52;42.90
36932;BME280;22847;42.654;23.370;2023-03-15T04:25:20;93500.50;;;8.66;43.10
36932;BME280;22847;42.654;23.370;2023-03-15T04:27:46;93299.84;;;7.67;43.29
36932;BME280;22847;42.654;23.370;2023-03-15T04:30:26;93506.66;;;8.65;44.44
36932;BME280;22847;42.654;23.370;2023-03-15T04:32:52;93444.19;;;8.58;44.81
36932;BME280;22847;42.654;23.370;2023-03-15T04:35:27;93318.66;;;7.93;44.97
36932;BME280;22847;42.654;23.370;2023-03-15T04:37:53;93461.38;;;8.83;44.56
36932;BME280;22847;42.654;23.370;2023-03-15T04:40:20;93442.38;;;8.75;44.16
36932;BME280;22847;42.654;23.370;2023-03-15T04:42:49;93431.81;;;8.44;43.87
36932;BME280;22847;42.654;23.370;2023-03-15T04:45:14;93457.81;;;8.68;43.82
36932;BME280;22847;42.654;23.370;2023-03-15T04:47:40;93467.38;;;8.92;44.20
36932;BME280;22847;42.654;23.370;2023-03-15T04:50:06;93270.50;;;7.66;44.92
36932;BME280;22847;42.654;23.370;2023-03-15T04:52:31;93384.28;;;8.35;44.97
36932;BME280;22847;42.654;23.370;2023-03-15T04:54:57;93450.84;;;8.69;44.67
36932;BME280;22847;42.654;23.370;2023-03-15T04:57:22;93510.09;;;8.89;44.85
36932;BME280;22847;42.654;23.370;2023-03-15T04:59:47;93475.34;;;8.82;44.45
36932;BME280;22847;42.654;23.370;2023-03-15T05:02:13;93496.63;;;8.94;44.30
36932;BME280;22847;42.654;23.370;2023-03-15T05:04:38;93473.22;;;9.02;44.10
36932;BME280;22847;42.654;23.370;2023-03-15T05:07:03;93470.63;;;9.02;43.69
36932;BME280;22847;42.654;23.370;2023-03-15T05:09:29;93440.69;;;8.25;44.88
36932;BME280;22847;42.654;23.370;2023-03-15T05:12:03;93498.25;;;8.55;45.02
36932;BME280;22847;42.654;23.370;2023-03-15T05:14:28;93289.44;;;6.50;46.98
36932;BME280;22847;42.654;23.370;2023-03-15T05:16:53;93481.97;;;7.78;47.08
36932;BME280;22847;42.654;23.370;2023-03-15T05:19:20;93482.38;;;7.57;47.15
36932;BME280;22847;42.654;23.370;2023-03-15T05:21:45;93480.88;;;7.47;47.82
36932;BME280;22847;42.654;23.370;2023-03-15T05:24:11;93496.63;;;6.58;49.58
36932;BME280;22847;42.654;23.370;2023-03-15T05:26:36;93471.56;;;6.41;50.31
36932;BME280;22847;42.654;23.370;2023-03-15T05:29:02;93234.19;;;5.21;50.11
36932;BME280;22847;42.654;23.370;2023-03-15T05:31:28;93477.13;;;6.90;50.30
36932;BME280;22847;42.654;23.370;2023-03-15T05:33:53;93333.47;;;6.24;49.59
36932;BME280;22847;42.654;23.370;2023-03-15T05:36:18;93462.19;;;6.84;50.64
36932;BME280;22847;42.654;23.370;2023-03-15T05:38:44;93252.44;;;5.80;50.07
36932;BME280;22847;42.654;23.370;2023-03-15T05:41:09;93454.56;;;7.34;48.80
36932;BME280;22847;42.654;23.370;2023-03-15T05:43:34;93458.03;;;7.92;47.46
36932;BME280;22847;42.654;23.370;2023-03-15T05:46:00;93424.59;;;7.97;46.42
36932;BME280;22847;42.654;23.370;2023-03-15T05:48:25;93420.41;;;8.04;46.40
36932;BME280;22847;42.654;23.370;2023-03-15T05:50:51;93447.22;;;8.29;46.08
36932;BME280;22847;42.654;23.370;2023-03-15T05:53:17;93450.06;;;8.02;46.95
36932;BME280;22847;42.654;23.370;2023-03-15T05:55:42;93228.28;;;7.07;46.44
36932;BME280;22847;42.654;23.370;2023-03-15T05:58:07;93436.22;;;8.43;44.45
36932;BME280;22847;42.654;23.370;2023-03-15T06:00:33;93434.41;;;8.60;43.93
36932;BME280;22847;42.654;23.370;2023-03-15T06:02:58;93301.28;;;7.53;43.99
36932;BME280;22847;42.654;23.370;2023-03-15T06:05:24;93462.63;;;9.75;42.04
36932;BME280;22847;42.654;23.370;2023-03-15T06:07:50;93463.28;;;10.84;39.23
36932;BME280;22847;42.654;23.370;2023-03-15T06:10:15;93422.06;;;10.65;38.58
36932;BME280;22847;42.654;23.370;2023-03-15T06:12:40;93456.13;;;11.01;38.26
36932;BME280;22847;42.654;23.370;2023-03-15T06:15:06;93255.50;;;9.58;39.40
36932;BME280;22847;42.654;23.370;2023-03-15T06:17:32;93432.84;;;11.14;37.68
36932;BME280;22847;42.654;23.370;2023-03-15T06:19:57;93423.78;;;11.25;36.78
36932;BME280;22847;42.654;23.370;2023-03-15T06:22:23;93375.31;;;12.17;35.34
36932;BME280;22847;42.654;23.370;2023-03-15T06:24:48;93412.72;;;13.30;33.62
36932;BME280;22847;42.654;23.370;2023-03-15T06:27:14;93460.59;;;14.34;32.88
36932;BME280;22847;42.654;23.370;2023-03-15T06:29:39;93408.53;;;14.17;33.01
36932;BME280;22847;42.654;23.370;2023-03-15T06:32:05;93434.94;;;13.75;33.90
36932;BME280;22847;42.654;23.370;2023-03-15T06:34:30;93430.66;;;13.33;34.91
36932;BME280;22847;42.654;23.370;2023-03-15T06:36:55;93451.53;;;13.82;34.54
36932;BME280;22847;42.654;23.370;2023-03-15T06:39:21;93427.47;;;14.13;33.49
36932;BME280;22847;42.654;23.370;2023-03-15T06:41:47;93447.56;;;13.65;34.52
36932;BME280;22847;42.654;23.370;2023-03-15T06:44:12;93434.66;;;12.59;36.61
36932;BME280;22847;42.654;23.370;2023-03-15T06:46:38;93325.22;;;11.56;36.87
36932;BME280;22847;42.654;23.370;2023-03-15T06:49:04;93437.34;;;13.35;35.77
36932;BME280;22847;42.654;23.370;2023-03-15T06:51:29;93443.34;;;13.08;35.65
36932;BME280;22847;42.654;23.370;2023-03-15T06:53:54;93447.06;;;13.42;35.24
36932;BME280;22847;42.654;23.370;2023-03-15T06:56:20;93393.00;;;13.34;34.34
36932;BME280;22847;42.654;23.370;2023-03-15T06:58:46;93236.31;;;12.90;33.62
36932;BME280;22847;42.654;23.370;2023-03-15T07:01:12;93139.94;;;12.12;32.89
36932;BME280;22847;42.654;23.370;2023-03-15T07:03:38;93429.31;;;13.78;33.30
36932;BME280;22847;42.654;23.370;2023-03-15T07:06:03;93427.47;;;14.13;33.33
36932;BME280;22847;42.654;23.370;2023-03-15T07:08:29;93434.69;;;14.58;33.14
36932;BME280;22847;42.654;23.370;2023-03-15T07:10:55;93416.50;;;14.63;33.69
36932;BME280;22847;42.654;23.370;2023-03-15T07:13:20;93406.88;;;14.90;33.43
36932;BME280;22847;42.654;23.370;2023-03-15T07:15:53;93432.28;;;15.23;33.06
36932;BME280;22847;42.654;23.370;2023-03-15T07:18:19;93446.03;;;15.71;31.82
36932;BME280;22847;42.654;23.370;2023-03-15T07:20:45;93367.97;;;15.78;31.52
36932;BME280;22847;42.654;23.370;2023-03-15T07:23:10;93276.22;;;15.05;31.10
36932;BME280;22847;42.654;23.370;2023-03-15T07:25:36;93223.16;;;14.77;31.74
36932;BME280;22847;42.654;23.370;2023-03-15T07:28:01;93374.22;;;15.77;31.16
36932;BME280;22847;42.654;23.370;2023-03-15T07:30:27;93363.00;;;15.43;31.05
36932;BME280;22847;42.654;23.370;2023-03-15T07:32:52;93448.06;;;15.49;31.46
36932;BME280;22847;42.654;23.370;2023-03-15T07:35:17;93267.00;;;14.37;31.26
36932;BME280;22847;42.654;23.370;2023-03-15T07:37:43;93428.28;;;15.20;31.43
36932;BME280;22847;42.654;23.370;2023-03-15T07:40:09;93288.56;;;14.92;30.45
36932;BME280;22847;42.654;23.370;2023-03-15T07:42:35;93395.44;;;16.26;29.74
36932;BME280;22847;42.654;23.370;2023-03-15T07:45:02;93283.00;;;16.22;28.72
36932;BME280;22847;42.654;23.370;2023-03-15T07:47:27;93413.94;;;16.89;28.59
36932;BME280;22847;42.654;23.370;2023-03-15T07:49:53;93370.69;;;16.78;28.95
36932;BME280;22847;42.654;23.370;2023-03-15T07:52:19;93418.31;;;17.02;28.37
36932;BME280;22847;42.654;23.370;2023-03-15T07:54:45;93381.72;;;16.62;28.32
36932;BME280;22847;42.654;23.370;2023-03-15T07:57:11;93431.19;;;16.40;29.73
36932;BME280;22847;42.654;23.370;2023-03-15T07:59:37;93405.91;;;16.01;29.42
36932;BME280;22847;42.654;23.370;2023-03-15T08:02:02;93418.09;;;15.83;29.21
36932;BME280;22847;42.654;23.370;2023-03-15T08:04:28;93319.53;;;15.60;30.01
36932;BME280;22847;42.654;23.370;2023-03-15T08:06:53;93382.47;;;15.93;30.03
36932;BME280;22847;42.654;23.370;2023-03-15T08:09:18;93298.34;;;15.42;30.90
36932;BME280;22847;42.654;23.370;2023-03-15T08:11:44;92970.84;;;12.53;31.93
36932;BME280;22847;42.654;23.370;2023-03-15T08:14:09;93410.47;;;15.48;31.61
36932;BME280;22847;42.654;23.370;2023-03-15T08:16:34;93178.44;;;14.06;31.92
36932;BME280;22847;42.654;23.370;2023-03-15T08:19:00;93143.34;;;14.14;31.75
36932;BME280;22847;42.654;23.370;2023-03-15T08:21:25;93381.56;;;16.13;30.80
36932;BME280;22847;42.654;23.370;2023-03-15T08:23:50;93362.06;;;16.27;30.44
36932;BME280;22847;42.654;23.370;2023-03-15T08:26:16;93366.13;;;16.29;30.32
36932;BME280;22847;42.654;23.370;2023-03-15T08:28:41;93342.78;;;16.39;30.44
36932;BME280;22847;42.654;23.370;2023-03-15T08:31:08;93333.16;;;16.58;29.63
36932;BME280;22847;42.654;23.370;2023-03-15T08:33:33;93178.81;;;15.96;29.13
36932;BME280;22847;42.654;23.370;2023-03-15T08:35:59;93358.72;;;16.44;29.66
36932;BME280;22847;42.654;23.370;2023-03-15T08:38:25;93356.88;;;16.51;29.35
36932;BME280;22847;42.654;23.370;2023-03-15T08:40:57;93372.78;;;16.94;28.94
36932;BME280;22847;42.654;23.370;2023-03-15T08:43:22;93377.56;;;16.79;29.69
36932;BME280;22847;42.654;23.370;2023-03-15T08:45:49;93386.19;;;16.55;29.97
36932;BME280;22847;42.654;23.370;2023-03-15T08:48:15;93354.66;;;16.48;29.60
36932;BME280;22847;42.654;23.370;2023-03-15T08:50:40;93348.69;;;15.97;30.03
36932;BME280;22847;42.654;23.370;2023-03-15T08:53:05;93345.78;;;16.12;29.84
36932;BME280;22847;42.654;23.370;2023-03-15T08:55:32;93389.63;;;16.24;30.21
36932;BME280;22847;42.654;23.370;2023-03-15T08:57:57;93356.88;;;15.76;29.98
36932;BME280;22847;42.654;23.370;2023-03-15T09:00:25;93383.81;;;15.51;31.41
36932;BME280;22847;42.654;23.370;2023-03-15T09:02:52;93400.72;;;15.75;31.49
36932;BME280;22847;42.654;23.370;2023-03-15T09:05:19;93116.78;;;12.84;32.24
36932;BME280;22847;42.654;23.370;2023-03-15T09:07:44;93383.16;;;15.49;32.09
36932;BME280;22847;42.654;23.370;2023-03-15T09:10:11;93398.16;;;15.29;31.53
36932;BME280;22847;42.654;23.370;2023-03-15T09:12:45;93357.63;;;14.86;31.81
36932;BME280;22847;42.654;23.370;2023-03-15T09:15:12;93388.41;;;14.31;32.24
36932;BME280;22847;42.654;23.370;2023-03-15T09:17:38;93381.00;;;13.94;33.46
36932;BME280;22847;42.654;23.370;2023-03-15T09:20:04;93340.63;;;13.68;33.71
36932;BME280;22847;42.654;23.370;2023-03-15T09:22:36;93407.34;;;13.79;33.73
36932;BME280;22847;42.654;23.370;2023-03-15T09:25:02;93363.00;;;13.71;33.65
36932;BME280;22847;42.654;23.370;2023-03-15T09:27:32;93181.00;;;12.93;33.32
36932;BME280;22847;42.654;23.370;2023-03-15T09:29:57;93356.53;;;13.67;33.53
36932;BME280;22847;42.654;23.370;2023-03-15T09:32:23;93214.47;;;13.04;33.43
36932;BME280;22847;42.654;23.370;2023-03-15T09:34:49;93387.19;;;14.34;33.18
36932;BME280;22847;42.654;23.370;2023-03-15T09:37:15;93362.84;;;14.53;32.85
36932;BME280;22847;42.654;23.370;2023-03-15T09:39:40;93219.97;;;13.96;33.04
36932;BME280;22847;42.654;23.370;2023-03-15T09:42:29;93395.50;;;15.42;32.33
36932;BME280;22847;42.654;23.370;2023-03-15T09:45:17;93383.78;;;15.58;31.42
36932;BME280;22847;42.654;23.370;2023-03-15T09:50:51;93359.19;;;15.00;32.61
36932;BME280;22847;42.654;23.370;2023-03-15T09:53:55;93359.34;;;15.44;32.50
36932;BME280;22847;42.654;23.370;2023-03-15T09:58:53;93354.75;;;15.00;32.50
36932;BME280;22847;42.654;23.370;2023-03-15T10:01:35;93345.88;;;14.82;32.50
36932;BME280;22847;42.654;23.370;2023-03-15T10:04:09;93319.66;;;14.88;32.27
36932;BME280;22847;42.654;23.370;2023-03-15T10:06:37;93326.91;;;14.60;33.01
36932;BME280;22847;42.654;23.370;2023-03-15T10:09:14;93360.28;;;13.17;35.36
36932;BME280;22847;42.654;23.370;2023-03-15T10:17:10;93374.09;;;12.34;37.19
36932;BME280;22847;42.654;23.370;2023-03-15T10:19:50;93368.03;;;12.76;36.92
36932;BME280;22847;42.654;23.370;2023-03-15T10:22:31;93353.16;;;13.38;35.52
36932;BME280;22847;42.654;23.370;2023-03-15T10:25:25;93199.06;;;11.91;36.03
36932;BME280;22847;42.654;23.370;2023-03-15T10:28:04;93385.34;;;13.05;36.18
36932;BME280;22847;42.654;23.370;2023-03-15T10:30:36;93356.94;;;13.70;34.97
36932;BME280;22847;42.654;23.370;2023-03-15T10:35:31;93351.75;;;14.57;34.61
36932;BME280;22847;42.654;23.370;2023-03-15T10:37:57;93310.94;;;14.35;34.03
36932;BME280;22847;42.654;23.370;2023-03-15T10:40:43;93350.34;;;14.81;34.33
36932;BME280;22847;42.654;23.370;2023-03-15T10:45:41;93162.69;;;13.54;33.51
36932;BME280;22847;42.654;23.370;2023-03-15T10:48:07;93151.63;;;13.58;32.97
36932;BME280;22847;42.654;23.370;2023-03-15T10:50:32;93344.69;;;14.45;33.64
36932;BME280;22847;42.654;23.370;2023-03-15T10:53:00;93352.34;;;14.66;33.75
36932;BME280;22847;42.654;23.370;2023-03-15T10:55:35;93199.09;;;13.42;33.96
36932;BME280;22847;42.654;23.370;2023-03-15T10:58:29;93353.53;;;14.37;33.86
36932;BME280;22847;42.654;23.370;2023-03-15T11:01:05;93322.94;;;13.83;34.35
36932;BME280;22847;42.654;23.370;2023-03-15T11:03:35;93188.38;;;13.24;33.97
36932;BME280;22847;42.654;23.370;2023-03-15T11:06:02;93137.47;;;12.79;34.05
36932;BME280;22847;42.654;23.370;2023-03-15T11:08:35;93334.53;;;14.28;33.85
36932;BME280;22847;42.654;23.370;2023-03-15T11:11:03;93329.94;;;14.37;33.78
36932;BME280;22847;42.654;23.370;2023-03-15T11:13:31;93146.00;;;12.94;33.91
36932;BME280;22847;42.654;23.370;2023-03-15T11:18:45;93328.97;;;13.84;34.96
36932;BME280;22847;42.654;23.370;2023-03-15T11:21:13;93138.28;;;12.79;34.24
36932;BME280;22847;42.654;23.370;2023-03-15T11:23:42;93338.69;;;13.97;34.11
36932;BME280;22847;42.654;23.370;2023-03-15T11:26:24;93329.28;;;14.28;34.42
36932;BME280;22847;42.654;23.370;2023-03-15T11:28:53;93331.72;;;14.30;33.75
36932;BME280;22847;42.654;23.370;2023-03-15T11:31:20;93342.66;;;14.53;33.99
36932;BME280;22847;42.654;23.370;2023-03-15T11:34:08;93280.44;;;14.01;33.94
36932;BME280;22847;42.654;23.370;2023-03-15T11:36:39;93301.19;;;13.90;34.02
36932;BME280;22847;42.654;23.370;2023-03-15T11:39:09;93324.22;;;14.14;34.26
36932;BME280;22847;42.654;23.370;2023-03-15T11:44:29;93243.34;;;13.98;33.34
36932;BME280;22847;42.654;23.370;2023-03-15T11:47:19;93293.91;;;13.92;33.79
36932;BME280;22847;42.654;23.370;2023-03-15T11:49:48;93139.84;;;12.67;34.67
36932;BME280;22847;42.654;23.370;2023-03-15T11:52:16;93331.28;;;14.13;34.23
36932;BME280;22847;42.654;23.370;2023-03-15T11:54:43;93315.22;;;14.49;33.86
36932;BME280;22847;42.654;23.370;2023-03-15T12:03:24;93323.31;;;14.54;33.33
36932;BME280;22847;42.654;23.370;2023-03-15T12:06:02;93139.91;;;13.41;33.21
36932;BME280;22847;42.654;23.370;2023-03-15T12:11:00;93256.47;;;14.24;33.73
36932;BME280;22847;42.654;23.370;2023-03-15T12:13:30;93123.81;;;13.44;33.60
36932;BME280;22847;42.654;23.370;2023-03-15T12:15:56;93290.19;;;14.60;33.47
36932;BME280;22847;42.654;23.370;2023-03-15T12:18:30;93287.56;;;14.73;33.59
36932;BME280;22847;42.654;23.370;2023-03-15T12:24:00;93268.81;;;14.56;33.04
36932;BME280;22847;42.654;23.370;2023-03-15T12:26:44;93291.19;;;14.79;32.80
36932;BME280;22847;42.654;23.370;2023-03-15T12:29:17;93284.34;;;14.71;32.77
36932;BME280;22847;42.654;23.370;2023-03-15T12:31:57;93282.50;;;14.78;33.07
36932;BME280;22847;42.654;23.370;2023-03-15T12:37:00;93267.00;;;14.37;33.96
36932;BME280;22847;42.654;23.370;2023-03-15T12:42:03;93277.72;;;14.36;33.54
36932;BME280;22847;42.654;23.370;2023-03-15T12:47:01;93269.97;;;14.14;34.35
36932;BME280;22847;42.654;23.370;2023-03-15T12:49:33;93095.47;;;12.87;34.72
36932;BME280;22847;42.654;23.370;2023-03-15T12:52:44;93278.28;;;13.44;36.24
36932;BME280;22847;42.654;23.370;2023-03-15T12:54:57;93289.28;;;13.87;34.97
36932;BME280;22847;42.654;23.370;2023-03-15T12:57:29;93317.34;;;14.06;35.00
36932;BME280;22847;42.654;23.370;2023-03-15T13:02:35;93336.06;;;13.97;35.30
36932;BME280;22847;42.654;23.370;2023-03-15T13:05:23;93281.66;;;14.18;35.16
36932;BME280;22847;42.654;23.370;2023-03-15T13:07:57;93281.69;;;14.25;34.88
36932;BME280;22847;42.654;23.370;2023-03-15T13:10:58;93267.19;;;14.42;35.23
36932;BME280;22847;42.654;23.370;2023-03-15T13:18:58;93215.16;;;14.13;34.45
36932;BME280;22847;42.654;23.370;2023-03-15T13:23:58;93109.91;;;13.44;38.38
36932;BME280;22847;42.654;23.370;2023-03-15T13:26:54;93273.03;;;14.38;39.23
36932;BME280;22847;42.654;23.370;2023-03-15T13:29:29;93263.53;;;14.30;39.14
36932;BME280;22847;42.654;23.370;2023-03-15T13:32:21;93256.69;;;14.29;38.81
36932;BME280;22847;42.654;23.370;2023-03-15T13:34:46;93276.06;;;14.41;38.37
36932;BME280;22847;42.654;23.370;2023-03-15T13:37:23;93310.38;;;14.53;38.49
36932;BME280;22847;42.654;23.370;2023-03-15T13:39:59;93276.88;;;14.55;38.70
36932;BME280;22847;42.654;23.370;2023-03-15T13:42:25;93272.03;;;14.71;38.96
36932;BME280;22847;42.654;23.370;2023-03-15T13:45:13;93274.84;;;14.83;38.41
36932;BME280;22847;42.654;23.370;2023-03-15T13:47:44;93102.44;;;13.47;39.37
36932;BME280;22847;42.654;23.370;2023-03-15T13:50:18;93282.13;;;14.61;39.17
36932;BME280;22847;42.654;23.370;2023-03-15T13:52:44;93219.19;;;14.35;38.28
36932;BME280;22847;42.654;23.370;2023-03-15T13:55:18;93266.00;;;14.45;38.36
36932;BME280;22847;42.654;23.370;2023-03-15T13:57:44;93278.09;;;14.65;38.41
36932;BME280;22847;42.654;23.370;2023-03-15T14:00:15;93279.50;;;14.74;37.08
36932;BME280;22847;42.654;23.370;2023-03-15T14:02:47;93292.41;;;14.56;38.51